Time;durP1;ratioP1;P1;durP2;ratioP2;P2;SDS_P1;SDS_P2;PMS_P1;PMS_P2;Temp;Humidity;BMP_temperature;BMP_pressure;BME280_temperature;BME280_humidity;BME280_pressure;Samples;Min_cycle;Max_cycle;Signal;HPM_P1;HPM_P2
2022/12/15 00:38:44;;;;;;;20.00;15.18;;;1.60;99.90;;;;;;5051521;28;20035;-57
2022/12/15 00:41:15;;;;;;;20.90;15.93;;;1.60;99.90;;;;;;5051391;28;20025;-57
2022/12/15 00:43:40;;;;;;;20.05;15.07;;;1.70;99.90;;;;;;5051383;28;20017;-55
2022/12/15 00:48:51;;;;;;;20.30;14.85;;;1.70;99.90;;;;;;5051626;28;20040;-58
2022/12/15 00:51:17;;;;;;;21.85;16.48;;;1.70;99.90;;;;;;5051407;28;20029;-58
2022/12/15 01:21:09;;;;;;;21.40;16.65;;;1.40;99.90;;;;;;5050854;28;20085;-55
2022/12/15 01:23:36;;;;;;;21.65;17.00;;;1.40;99.90;;;;;;5050677;28;20025;-56
2022/12/15 01:26:03;;;;;;;22.75;17.13;;;1.40;99.90;;;;;;5050496;28;20036;-55
2022/12/15 01:28:28;;;;;;;21.58;15.60;;;1.40;99.90;;;;;;5050619;28;20075;-54
2022/12/15 01:30:54;;;;;;;19.73;15.75;;;1.40;99.90;;;;;;5050445;28;20065;-54
2022/12/15 01:33:20;;;;;;;19.08;15.07;;;1.40;99.90;;;;;;5050588;28;20033;-54
2022/12/15 01:35:58;;;;;;;19.88;16.13;;;1.40;99.90;;;;;;5050680;28;20033;-51
2022/12/15 01:38:25;;;;;;;22.00;15.55;;;1.40;99.90;;;;;;5050584;28;20420;-51
2022/12/15 01:41:00;;;;;;;21.05;15.80;;;1.40;99.90;;;;;;5050717;28;20380;-50
2022/12/15 01:43:30;;;;;;;20.73;16.27;;;1.40;99.90;;;;;;5050500;28;20036;-56
2022/12/15 01:46:12;;;;;;;23.95;16.73;;;1.40;99.90;;;;;;5050461;28;20410;-55
2022/12/15 01:49:01;;;;;;;23.45;16.40;;;1.30;99.90;;;;;;5050588;28;20437;-55
2022/12/15 01:51:38;;;;;;;23.00;17.10;;;1.30;99.90;;;;;;5041949;28;20033;-58
2022/12/15 01:54:33;;;;;;;24.20;18.17;;;1.30;99.90;;;;;;5048950;28;20029;-51
2022/12/15 01:57:03;;;;;;;23.65;18.17;;;1.40;99.90;;;;;;5050349;28;20017;-52
2022/12/15 01:59:34;;;;;;;32.05;20.77;;;1.40;99.90;;;;;;5050148;28;20021;-58
2022/12/15 02:02:00;;;;;;;25.58;18.13;;;1.40;99.90;;;;;;5050032;28;20029;-57
2022/12/15 02:04:26;;;;;;;25.58;18.98;;;1.40;99.90;;;;;;5050375;28;20559;-56
2022/12/15 02:06:52;;;;;;;22.17;18.02;;;1.40;99.90;;;;;;5050266;28;20029;-58
2022/12/15 02:09:19;;;;;;;22.63;17.80;;;1.40;99.90;;;;;;5050139;28;20033;-55
2022/12/15 02:12:18;;;;;;;22.58;17.42;;;1.40;99.90;;;;;;5049834;28;20056;-56
2022/12/15 02:15:05;;;;;;;25.00;17.20;;;1.40;99.90;;;;;;5050096;28;20396;-56
2022/12/15 02:17:35;;;;;;;20.60;17.10;;;1.40;99.90;;;;;;5048728;28;20033;-58
2022/12/15 02:20:12;;;;;;;24.23;18.20;;;1.40;99.90;;;;;;5049783;28;20060;-56
2022/12/15 02:22:44;;;;;;;25.38;18.15;;;1.40;99.90;;;;;;5049907;28;20029;-54
2022/12/15 02:25:33;;;;;;;22.42;18.05;;;1.40;99.90;;;;;;5049889;28;20025;-56
2022/12/15 02:28:18;;;;;;;24.85;18.92;;;1.40;99.90;;;;;;5048609;28;20459;-56
2022/12/15 02:31:48;;;;;;;23.50;18.50;;;1.30;99.90;;;;;;5049694;28;20033;-54
2022/12/15 02:33:56;;;;;;;25.98;19.15;;;1.40;99.90;;;;;;5049699;28;20026;-54
2022/12/15 02:36:28;;;;;;;26.35;19.80;;;1.40;99.90;;;;;;5049603;28;20030;-56
2022/12/15 02:38:53;;;;;;;27.42;20.42;;;1.30;99.90;;;;;;5049640;28;20025;-58
2022/12/15 02:41:50;;;;;;;26.13;19.08;;;1.30;99.90;;;;;;5048633;28;20510;-57
2022/12/15 02:44:21;;;;;;;27.30;19.92;;;1.30;99.90;;;;;;5036931;28;20105;-53
2022/12/15 02:47:13;;;;;;;29.92;20.60;;;1.30;99.90;;;;;;5049546;28;20025;-56
2022/12/15 02:49:53;;;;;;;30.80;22.58;;;1.30;99.90;;;;;;5049541;28;20025;-54
2022/12/15 02:52:48;;;;;;;29.70;20.40;;;1.30;99.90;;;;;;5049411;28;20153;-56
2022/12/15 02:55:22;;;;;;;25.75;19.00;;;1.30;99.90;;;;;;5047399;28;20045;-57
2022/12/15 02:58:07;;;;;;;30.65;21.48;;;1.30;99.90;;;;;;5049380;28;20061;-54
2022/12/15 03:00:37;;;;;;;27.08;20.15;;;1.20;99.90;;;;;;5049424;28;20457;-56
2022/12/15 03:03:19;;;;;;;26.13;19.23;;;1.20;99.90;;;;;;5049191;28;20052;-55
2022/12/15 03:05:48;;;;;;;26.48;19.30;;;1.30;99.90;;;;;;5049083;28;20027;-55
2022/12/15 03:08:13;;;;;;;26.85;20.00;;;1.30;99.90;;;;;;5049117;28;20547;-54
2022/12/15 03:10:39;;;;;;;25.17;18.10;;;1.30;99.90;;;;;;5049145;28;20113;-57
2022/12/15 03:13:05;;;;;;;27.88;19.65;;;1.30;99.90;;;;;;5048926;28;20434;-55
2022/12/15 03:15:31;;;;;;;27.15;20.08;;;1.30;99.90;;;;;;5049163;28;20025;-55
2022/12/15 03:17:56;;;;;;;34.42;22.90;;;1.30;99.90;;;;;;5049226;28;20074;-56
2022/12/15 03:20:22;;;;;;;25.30;19.85;;;1.30;99.90;;;;;;5048832;28;20111;-58
2022/12/15 03:22:48;;;;;;;27.02;20.27;;;1.20;99.90;;;;;;5049018;28;20036;-53
2022/12/15 03:25:14;;;;;;;31.10;21.67;;;1.20;99.90;;;;;;5048680;28;20021;-53
2022/12/15 03:27:39;;;;;;;27.90;19.90;;;1.20;99.90;;;;;;5049034;28;20341;-51
2022/12/15 03:30:06;;;;;;;27.48;20.65;;;1.20;99.90;;;;;;5048891;28;20100;-55
2022/12/15 03:32:31;;;;;;;28.27;20.65;;;1.20;99.90;;;;;;5048870;28;20025;-52
2022/12/15 03:34:57;;;;;;;25.15;19.23;;;1.30;99.90;;;;;;5048809;28;20070;-52
2022/12/15 03:37:23;;;;;;;27.85;19.58;;;1.30;99.90;;;;;;5048694;28;20033;-53
2022/12/15 03:39:48;;;;;;;29.20;20.35;;;1.30;99.90;;;;;;5048585;28;20084;-56
2022/12/15 03:42:46;;;;;;;29.63;20.65;;;1.30;99.90;;;;;;5048780;28;20025;-51
2022/12/15 03:44:59;;;;;;;29.60;22.23;;;1.30;99.90;;;;;;5048411;28;20025;-50
2022/12/15 03:47:25;;;;;;;32.20;22.60;;;1.20;99.90;;;;;;5048552;28;20032;-51
2022/12/15 03:49:51;;;;;;;30.50;21.80;;;1.20;99.90;;;;;;5048698;28;20021;-53
2022/12/15 03:52:16;;;;;;;27.27;20.83;;;1.20;99.90;;;;;;5048355;28;20456;-53
2022/12/15 03:54:42;;;;;;;30.25;22.30;;;1.30;99.90;;;;;;5048464;28;20025;-54
2022/12/15 03:57:07;;;;;;;27.52;20.73;;;1.20;99.90;;;;;;5048416;28;20025;-53
2022/12/15 03:59:33;;;;;;;27.48;19.77;;;1.20;99.90;;;;;;5048615;28;20584;-51
2022/12/15 04:01:58;;;;;;;27.45;20.75;;;1.20;99.90;;;;;;5048505;28;20033;-54
2022/12/15 04:04:24;;;;;;;26.05;20.42;;;1.10;99.90;;;;;;5048396;28;20025;-53
2022/12/15 04:06:50;;;;;;;28.17;19.30;;;1.10;99.90;;;;;;5048334;28;20018;-52
2022/12/15 04:09:15;;;;;;;28.10;20.40;;;1.20;99.90;;;;;;5048366;28;20025;-52
2022/12/15 04:11:41;;;;;;;32.17;20.73;;;1.10;99.90;;;;;;5048156;28;20060;-55
2022/12/15 04:14:08;;;;;;;29.00;20.02;;;1.20;99.90;;;;;;5048272;28;20022;-55
2022/12/15 04:16:34;;;;;;;27.63;19.60;;;1.20;99.90;;;;;;5048357;28;20109;-55
2022/12/15 04:21:43;;;;;;;29.73;20.38;;;1.20;99.90;;;;;;5047725;28;20109;-56
2022/12/15 05:32:34;;;;;;;48.15;30.30;;;0.90;99.90;;;;;;5050753;28;20124;-52
2022/12/15 05:35:00;;;;;;;48.22;31.23;;;0.90;99.90;;;;;;5050449;28;20115;-57
2022/12/15 05:37:26;;;;;;;49.92;32.08;;;0.80;99.90;;;;;;5050653;28;20025;-56
2022/12/15 05:39:51;;;;;;;49.75;31.83;;;0.80;99.90;;;;;;5050627;28;20056;-55
2022/12/15 05:42:17;;;;;;;44.90;31.55;;;0.80;99.90;;;;;;5050472;28;20029;-54
2022/12/15 05:44:43;;;;;;;44.75;31.50;;;0.80;99.90;;;;;;5050287;28;20029;-56
2022/12/15 05:47:10;;;;;;;52.17;32.28;;;0.70;99.90;;;;;;5050453;28;20056;-56
2022/12/15 05:49:36;;;;;;;48.85;31.48;;;0.70;99.90;;;;;;5050441;28;20021;-58
2022/12/15 05:52:02;;;;;;;50.03;32.47;;;0.70;99.90;;;;;;5050219;28;20502;-55
2022/12/15 05:54:27;;;;;;;50.97;33.70;;;0.70;99.90;;;;;;5049176;28;20036;-55
2022/12/15 05:56:53;;;;;;;58.60;34.05;;;0.70;99.90;;;;;;5050324;28;20028;-55
2022/12/15 05:59:19;;;;;;;55.35;37.10;;;0.70;99.90;;;;;;5050124;28;20490;-54
2022/12/15 06:01:45;;;;;;;56.15;36.92;;;0.70;99.90;;;;;;5050282;28;20025;-56
2022/12/15 06:04:14;;;;;;;51.28;34.22;;;0.60;99.90;;;;;;5049827;28;20035;-55
2022/12/15 06:06:40;;;;;;;55.53;35.17;;;0.70;99.90;;;;;;5048657;28;20021;-52
2022/12/15 06:09:15;;;;;;;53.60;34.13;;;0.60;99.90;;;;;;5049938;28;20092;-56
2022/12/15 06:11:41;;;;;;;52.20;35.28;;;0.60;99.90;;;;;;5049834;28;20052;-55
2022/12/15 06:14:08;;;;;;;55.20;35.58;;;0.60;99.90;;;;;;5049741;28;20017;-54
2022/12/15 06:16:34;;;;;;;57.53;35.83;;;0.60;99.90;;;;;;5048769;27;20062;-54
2022/12/15 06:19:01;;;;;;;52.78;33.17;;;0.60;99.90;;;;;;5049739;28;20028;-55
2022/12/15 06:21:34;;;;;;;55.75;35.72;;;0.50;99.90;;;;;;5049846;28;20033;-54
2022/12/15 06:24:01;;;;;;;58.97;38.05;;;0.50;99.90;;;;;;5049678;28;20025;-54
2022/12/15 06:26:29;;;;;;;57.22;36.53;;;0.40;99.90;;;;;;5049437;28;20029;-54
2022/12/15 06:28:57;;;;;;;61.63;36.60;;;0.40;99.90;;;;;;5029770;28;20369;-56
2022/12/15 06:31:24;;;;;;;58.47;37.58;;;0.40;99.90;;;;;;5029419;28;20020;-52
2022/12/15 06:33:54;;;;;;;51.13;33.30;;;0.40;99.90;;;;;;5029736;28;20114;-55
2022/12/15 06:36:22;;;;;;;50.00;33.25;;;0.40;99.90;;;;;;5029711;28;20107;-54
2022/12/15 06:38:49;;;;;;;48.22;32.17;;;0.40;99.90;;;;;;5029831;28;20026;-54
2022/12/15 06:41:17;;;;;;;51.80;34.83;;;0.40;99.90;;;;;;5029565;28;20076;-56
2022/12/15 06:43:49;;;;;;;52.95;33.50;;;0.40;99.90;;;;;;5028398;28;20104;-56
2022/12/15 06:46:15;;;;;;;53.45;34.13;;;0.40;99.90;;;;;;5029483;28;20056;-55
2022/12/15 06:48:45;;;;;;;51.60;33.42;;;0.40;99.90;;;;;;5029490;28;20054;-54
2022/12/15 06:51:17;;;;;;;49.78;33.22;;;0.40;99.90;;;;;;5028140;28;20037;-57
2022/12/15 06:53:52;;;;;;;115.40;58.60;;;0.40;99.90;;;;;;5029497;28;20029;-58
2022/12/15 06:56:26;;;;;;;71.38;41.22;;;0.50;99.90;;;;;;5029450;28;20712;-55
2022/12/15 06:58:53;;;;;;;50.33;32.72;;;0.40;99.90;;;;;;5029599;28;20025;-56
2022/12/15 07:01:21;;;;;;;51.75;33.92;;;0.40;99.90;;;;;;5029288;28;20029;-57
2022/12/15 07:03:46;;;;;;;51.83;33.72;;;0.40;99.90;;;;;;5028183;28;20024;-54
2022/12/15 07:06:15;;;;;;;56.63;34.63;;;0.30;99.90;;;;;;5029020;28;20017;-57
2022/12/15 07:08:41;;;;;;;52.30;34.35;;;0.30;99.90;;;;;;5029324;28;20116;-54
2022/12/15 07:11:09;;;;;;;59.10;35.78;;;0.30;99.90;;;;;;5028897;28;20026;-54
2022/12/15 07:13:34;;;;;;;62.08;38.03;;;0.30;99.90;;;;;;5029191;28;20422;-56
2022/12/15 07:16:01;;;;;;;68.65;35.35;;;0.30;99.90;;;;;;5028113;28;20033;-51
2022/12/15 07:18:28;;;;;;;70.07;38.95;;;0.40;99.90;;;;;;5028323;28;20025;-55
2022/12/15 07:20:55;;;;;;;83.47;47.08;;;0.40;99.90;;;;;;5027752;28;20033;-54
2022/12/15 07:23:20;;;;;;;74.68;45.78;;;0.40;99.90;;;;;;5028858;28;20025;-56
2022/12/15 07:25:46;;;;;;;100.80;56.95;;;0.40;99.90;;;;;;5028798;28;20032;-56
2022/12/15 07:28:12;;;;;;;106.22;62.83;;;0.40;99.90;;;;;;5026969;28;20430;-56
2022/12/15 07:30:38;;;;;;;71.88;42.35;;;0.40;99.90;;;;;;5028812;28;20026;-57
2022/12/15 07:33:04;;;;;;;74.85;46.95;;;0.40;99.90;;;;;;5028778;28;20037;-55
2022/12/15 07:35:30;;;;;;;70.85;43.33;;;0.30;99.90;;;;;;5029077;28;20406;-52
2022/12/15 07:37:56;;;;;;;66.43;42.03;;;0.30;99.90;;;;;;5028799;28;20114;-55
2022/12/15 07:40:22;;;;;;;64.55;43.03;;;0.30;99.90;;;;;;5027535;28;20163;-52
2022/12/15 07:42:47;;;;;;;70.70;44.78;;;0.30;99.90;;;;;;5028828;28;20041;-54
2022/12/15 07:45:13;;;;;;;64.32;37.60;;;0.30;99.90;;;;;;5028598;28;20099;-58
2022/12/15 07:47:39;;;;;;;58.85;38.00;;;0.40;99.90;;;;;;5028830;28;20022;-53
2022/12/15 07:50:06;;;;;;;60.20;36.80;;;0.40;99.90;;;;;;5028651;28;20024;-53
2022/12/15 07:52:31;;;;;;;118.93;68.75;;;0.40;99.90;;;;;;5028652;28;20029;-57
2022/12/15 07:54:57;;;;;;;152.38;78.00;;;0.40;99.90;;;;;;5028738;28;20064;-53
2022/12/15 07:57:23;;;;;;;70.20;45.20;;;0.40;99.90;;;;;;5028458;28;20068;-57
2022/12/15 07:59:49;;;;;;;90.05;54.42;;;0.30;99.90;;;;;;5028522;28;20053;-54
2022/12/15 08:02:15;;;;;;;88.57;53.38;;;0.30;99.90;;;;;;5028283;28;20022;-52
2022/12/15 08:04:41;;;;;;;71.80;46.70;;;0.30;99.90;;;;;;5028537;28;20112;-55
2022/12/15 08:07:08;;;;;;;73.55;46.00;;;0.40;99.90;;;;;;5027220;28;20456;-53
2022/12/15 08:09:34;;;;;;;109.45;63.60;;;0.50;99.90;;;;;;5027440;28;20143;-55
2022/12/15 08:12:00;;;;;;;141.10;83.38;;;0.50;99.90;;;;;;5028231;28;20197;-58
2022/12/15 08:14:27;;;;;;;105.82;63.58;;;0.60;99.90;;;;;;5028481;28;20040;-54
2022/12/15 08:16:53;;;;;;;111.80;68.88;;;0.70;99.90;;;;;;5027125;28;20045;-56
2022/12/15 08:19:19;;;;;;;151.30;82.80;;;0.80;99.90;;;;;;5027697;28;20065;-54
2022/12/15 08:21:45;;;;;;;160.55;84.45;;;0.80;99.90;;;;;;5027404;28;20044;-55
2022/12/15 08:24:15;;;;;;;120.20;67.25;;;0.80;99.90;;;;;;5029762;28;20044;-55
2022/12/15 08:26:42;;;;;;;117.47;61.65;;;0.90;99.90;;;;;;5017736;28;20030;-57
2022/12/15 08:29:11;;;;;;;206.85;106.47;;;0.80;99.90;;;;;;5017567;28;20025;-54
2022/12/15 08:31:37;;;;;;;162.75;91.35;;;1.00;99.90;;;;;;5015752;28;20029;-56
2022/12/15 08:34:04;;;;;;;143.63;88.13;;;1.20;99.90;;;;;;5017662;28;20474;-56
2022/12/15 08:36:31;;;;;;;112.97;73.80;;;1.30;99.90;;;;;;5017591;28;20021;-57
2022/12/15 08:38:57;;;;;;;110.53;68.07;;;1.50;99.90;;;;;;5017395;28;20163;-56
2022/12/15 08:41:26;;;;;;;160.25;94.07;;;1.60;99.90;;;;;;5035411;28;20041;-58
2022/12/15 08:43:52;;;;;;;169.10;89.90;;;1.60;99.90;;;;;;5020973;28;20026;-57
2022/12/15 08:46:21;;;;;;;107.93;61.78;;;1.80;99.90;;;;;;5019951;28;20030;-58
2022/12/15 08:48:47;;;;;;;57.47;37.88;;;1.90;99.90;;;;;;5021192;28;20030;-58
2022/12/15 08:51:13;;;;;;;54.28;35.30;;;1.90;99.90;;;;;;5020456;28;20032;-54
2022/12/15 08:53:39;;;;;;;64.63;40.80;;;1.90;99.90;;;;;;5020491;28;20148;-57
2022/12/15 08:56:11;;;;;;;54.33;35.90;;;1.90;99.90;;;;;;5020572;28;20529;-58
2022/12/15 08:58:37;;;;;;;65.47;40.03;;;1.80;99.90;;;;;;5020872;28;20033;-56
2022/12/15 09:01:19;;;;;;;56.05;35.95;;;1.70;99.90;;;;;;5018291;28;20484;-56
2022/12/15 09:03:46;;;;;;;55.25;36.80;;;1.60;99.90;;;;;;5020687;28;20042;-57
2022/12/15 09:06:14;;;;;;;55.88;37.60;;;1.60;99.90;;;;;;5020055;28;20112;-57
2022/12/15 09:08:40;;;;;;;52.75;37.22;;;1.60;99.90;;;;;;5020227;28;20037;-57
2022/12/15 09:11:06;;;;;;;60.45;39.50;;;1.60;99.90;;;;;;5020127;28;20036;-55
2022/12/15 09:13:33;;;;;;;51.03;34.70;;;1.60;99.90;;;;;;5029357;28;20116;-55
2022/12/15 09:16:04;;;;;;;53.88;35.47;;;1.60;99.90;;;;;;5019956;28;20058;-58
2022/12/15 09:18:30;;;;;;;58.17;38.40;;;1.60;99.90;;;;;;5019558;28;20033;-58
2022/12/15 09:21:04;;;;;;;52.38;34.97;;;1.70;99.90;;;;;;5020612;28;20430;-58
2022/12/15 09:23:30;;;;;;;57.55;35.75;;;1.80;99.90;;;;;;5019535;28;20038;-58
2022/12/15 09:26:00;;;;;;;50.42;34.00;;;1.60;99.90;;;;;;5020214;28;20042;-56
2022/12/15 09:28:27;;;;;;;51.92;34.15;;;1.60;99.90;;;;;;5020585;28;20029;-58
2022/12/15 09:30:53;;;;;;;52.42;35.75;;;1.60;99.90;;;;;;5019247;28;20030;-58
2022/12/15 09:33:18;;;;;;;56.85;35.55;;;1.60;99.90;;;;;;5020169;28;20365;-57
2022/12/15 09:35:50;;;;;;;57.58;36.85;;;1.80;99.90;;;;;;5029123;28;20029;-58
2022/12/15 09:38:16;;;;;;;54.83;36.13;;;1.90;99.90;;;;;;5029539;28;20388;-54
2022/12/15 09:40:42;;;;;;;518.08;244.68;;;1.80;99.90;;;;;;5029516;28;20029;-52
2022/12/15 09:43:32;;;;;;;211.23;96.63;;;1.80;99.90;;;;;;5029410;28;20322;-55
2022/12/15 09:46:06;;;;;;;77.45;46.75;;;1.80;99.90;;;;;;5029820;28;20532;-60
2022/12/15 09:48:39;;;;;;;205.80;93.97;;;1.90;99.90;;;;;;5028614;28;20025;-55
2022/12/15 09:51:11;;;;;;;411.67;199.80;;;2.00;99.90;;;;;;5029049;28;20461;-58
2022/12/15 09:53:36;;;;;;;128.32;82.22;;;1.90;99.90;;;;;;5029368;28;20373;-57
2022/12/15 09:56:07;;;;;;;96.65;59.30;;;2.00;99.90;;;;;;5029101;28;20029;-59
2022/12/15 09:58:47;;;;;;;146.60;71.65;;;2.00;99.90;;;;;;5028757;28;20025;-59
2022/12/15 10:02:04;;;;;;;132.88;83.43;;;2.20;99.90;;;;;;5028931;28;20538;-57
2022/12/15 10:04:46;;;;;;;69.68;45.45;;;2.10;99.90;;;;;;4995614;28;20041;-57
2022/12/15 10:07:17;;;;;;;67.78;47.00;;;2.10;99.90;;;;;;5029072;28;20017;-57
2022/12/15 10:09:43;;;;;;;66.90;42.45;;;1.90;99.90;;;;;;5029296;28;20128;-57
2022/12/15 10:12:17;;;;;;;57.20;37.70;;;1.90;99.90;;;;;;5028764;28;20081;-57
2022/12/15 10:14:55;;;;;;;59.88;38.47;;;1.90;99.90;;;;;;5029146;28;20057;-57
2022/12/15 10:17:26;;;;;;;57.83;40.38;;;1.90;99.90;;;;;;5029043;28;20052;-57
2022/12/15 10:20:04;;;;;;;62.38;43.33;;;1.90;99.90;;;;;;5028888;28;20077;-59
2022/12/15 10:22:35;;;;;;;62.72;41.05;;;1.90;99.90;;;;;;5028785;28;20021;-58
2022/12/15 10:25:18;;;;;;;61.92;44.00;;;1.90;99.90;;;;;;5028496;28;20032;-54
2022/12/15 10:28:07;;;;;;;60.77;40.73;;;1.90;99.90;;;;;;5028912;28;20053;-58
2022/12/15 10:30:34;;;;;;;63.20;40.20;;;2.00;99.90;;;;;;5028332;28;20667;-53
2022/12/15 10:33:23;;;;;;;97.47;66.63;;;2.00;99.90;;;;;;5028393;28;20117;-56
2022/12/15 10:35:52;;;;;;;81.43;47.33;;;2.00;99.90;;;;;;5028759;28;20030;-58
2022/12/15 10:38:36;;;;;;;62.35;41.80;;;2.10;99.90;;;;;;5028588;28;20030;-58
2022/12/15 10:41:15;;;;;;;63.30;38.53;;;2.00;99.90;;;;;;5028632;28;20018;-58
2022/12/15 10:43:43;;;;;;;59.58;39.58;;;2.00;99.90;;;;;;5028764;28;20026;-59
2022/12/15 10:46:17;;;;;;;107.20;68.75;;;1.90;99.90;;;;;;5028530;28;20443;-56
2022/12/15 10:48:49;;;;;;;91.95;56.92;;;2.00;99.90;;;;;;5028523;28;20539;-56
2022/12/15 10:51:26;;;;;;;62.53;41.33;;;2.10;99.90;;;;;;5027938;28;20026;-56
2022/12/15 10:54:08;;;;;;;58.72;37.30;;;2.20;99.90;;;;;;5028507;28;20021;-57
2022/12/15 10:57:13;;;;;;;53.85;33.78;;;2.20;99.90;;;;;;5028423;28;20028;-58
2022/12/15 10:59:39;;;;;;;77.22;53.55;;;2.20;99.90;;;;;;5028230;28;20032;-56
2022/12/15 11:02:20;;;;;;;41.67;30.67;;;2.30;99.90;;;;;;5028003;28;20055;-58
2022/12/15 11:05:14;;;;;;;49.85;32.53;;;2.30;99.90;;;;;;5028292;28;20030;-57
2022/12/15 11:07:41;;;;;;;50.10;33.58;;;2.30;99.90;;;;;;5028129;28;20021;-55
2022/12/15 11:13:19;;;;;;;72.97;42.38;;;2.30;99.90;;;;;;5027720;28;20090;-58
2022/12/15 11:15:46;;;;;;;95.75;60.35;;;2.50;99.90;;;;;;5026456;28;20557;-55
2022/12/15 11:18:15;;;;;;;57.95;34.60;;;2.30;99.90;;;;;;5027814;28;20057;-58
2022/12/15 11:20:59;;;;;;;47.63;31.00;;;2.40;99.90;;;;;;5028032;28;20021;-56
2022/12/15 11:24:02;;;;;;;145.20;76.25;;;2.50;99.90;;;;;;5027834;28;20049;-59
2022/12/15 11:26:45;;;;;;;228.70;123.97;;;2.50;99.90;;;;;;5027977;28;20056;-56
2022/12/15 11:29:29;;;;;;;140.63;74.17;;;2.40;99.90;;;;;;5027601;28;20022;-56
2022/12/15 11:31:56;;;;;;;360.77;154.65;;;2.50;99.90;;;;;;5027714;28;20020;-57
2022/12/15 11:34:43;;;;;;;76.40;49.10;;;2.50;99.90;;;;;;5027563;28;20049;-58
2022/12/15 11:37:32;;;;;;;59.17;39.28;;;2.30;99.90;;;;;;5026090;28;20029;-58
2022/12/15 11:40:17;;;;;;;50.95;33.33;;;2.40;99.90;;;;;;5027112;28;20049;-57
2022/12/15 11:43:24;;;;;;;45.75;31.73;;;2.50;99.90;;;;;;5027743;28;20021;-57
2022/12/15 11:46:16;;;;;;;45.22;29.67;;;2.40;99.90;;;;;;5027340;28;20032;-57
2022/12/15 11:49:25;;;;;;;47.05;32.70;;;2.50;99.90;;;;;;5019227;28;20037;-56
2022/12/15 11:52:09;;;;;;;46.10;31.85;;;2.60;99.90;;;;;;5047431;28;20041;-58
2022/12/15 11:54:43;;;;;;;40.03;28.52;;;2.60;99.90;;;;;;5027497;28;20028;-56
2022/12/15 11:57:29;;;;;;;46.70;30.25;;;3.00;99.90;;;;;;5028163;27;20055;-53
2022/12/15 12:00:07;;;;;;;43.17;28.88;;;2.90;99.90;;;;;;5047327;28;20044;-59
2022/12/15 12:02:42;;;;;;;44.05;29.90;;;2.90;99.90;;;;;;5047615;27;20021;-56
2022/12/15 12:05:28;;;;;;;50.53;29.42;;;2.80;99.90;;;;;;5046398;28;20033;-52
2022/12/15 12:07:54;;;;;;;48.40;31.38;;;2.90;99.90;;;;;;5047973;27;20021;-56
2022/12/15 12:10:50;;;;;;;50.00;31.70;;;2.80;99.90;;;;;;5045945;28;20044;-58
2022/12/15 12:13:40;;;;;;;42.35;28.85;;;2.70;99.90;;;;;;5048073;27;20308;-56
2022/12/15 12:16:30;;;;;;;48.05;30.10;;;2.60;99.90;;;;;;5050322;28;20032;-58
2022/12/15 12:19:08;;;;;;;40.42;29.33;;;2.50;99.90;;;;;;5051104;27;20029;-53
2022/12/15 12:21:44;;;;;;;40.88;29.00;;;2.70;99.90;;;;;;5050199;28;20021;-58
2022/12/15 12:24:27;;;;;;;42.63;28.80;;;2.60;99.90;;;;;;5050034;28;20029;-58
2022/12/15 12:27:01;;;;;;;;;;;2.40;99.90;;;;;;5046020;28;20009;-56
2022/12/15 12:29:33;;;;;;;41.63;28.15;;;2.20;99.90;;;;;;5049278;28;20272;-58
2022/12/15 12:32:01;;;;;;;48.45;28.70;;;2.10;99.90;;;;;;5049728;28;20021;-58
2022/12/15 12:34:49;;;;;;;43.75;30.17;;;2.10;99.90;;;;;;5050401;28;20312;-52
2022/12/15 12:37:20;;;;;;;43.13;30.27;;;2.20;99.90;;;;;;5049438;28;20386;-56
2022/12/15 12:39:48;;;;;;;45.25;30.48;;;2.30;99.90;;;;;;5050123;27;20025;-54
2022/12/15 12:42:29;;;;;;;41.72;27.38;;;2.30;99.90;;;;;;5024003;28;20098;-58
2022/12/15 12:44:55;;;;;;;48.60;29.80;;;2.30;99.90;;;;;;5033586;28;20029;-56
2022/12/15 12:47:31;;;;;;;44.38;29.52;;;2.30;99.90;;;;;;5018664;28;20468;-57
2022/12/15 12:50:18;;;;;;;46.28;29.98;;;2.40;99.90;;;;;;5020635;28;22611;-57
2022/12/15 12:52:56;;;;;;;42.15;28.73;;;2.30;99.90;;;;;;5019295;28;20036;-56
2022/12/15 12:55:41;;;;;;;45.60;31.05;;;2.20;99.90;;;;;;5018820;28;20444;-57
2022/12/15 12:58:29;;;;;;;45.30;30.77;;;2.20;99.90;;;;;;5018759;28;20051;-55
2022/12/15 13:01:18;;;;;;;47.83;32.28;;;2.00;99.90;;;;;;5019024;28;20029;-57
2022/12/15 13:03:45;;;;;;;54.22;30.67;;;2.10;99.90;;;;;;5019324;28;20049;-56
2022/12/15 13:06:32;;;;;;;45.90;29.83;;;2.10;99.90;;;;;;5018375;28;20034;-58
2022/12/15 13:09:18;;;;;;;47.47;32.70;;;2.00;99.90;;;;;;5018900;28;20021;-57
2022/12/15 13:11:50;;;;;;;54.70;33.83;;;2.20;99.90;;;;;;5018552;28;20046;-55
2022/12/15 13:14:18;;;;;;;48.58;32.35;;;2.00;99.90;;;;;;5018488;28;20389;-58
2022/12/15 13:16:46;;;;;;;52.33;33.65;;;2.00;99.90;;;;;;5019319;28;20030;-56
2022/12/15 13:19:13;;;;;;;55.80;34.10;;;1.90;99.90;;;;;;5018799;28;20030;-55
2022/12/15 13:21:44;;;;;;;56.28;34.75;;;1.80;99.90;;;;;;5018999;28;20040;-56
2022/12/15 13:24:32;;;;;;;53.83;34.03;;;1.70;99.90;;;;;;5028998;28;20098;-56
2022/12/15 13:27:12;;;;;;;55.78;34.45;;;1.70;99.90;;;;;;5037297;27;20052;-55
2022/12/15 13:29:56;;;;;;;52.13;33.22;;;1.60;99.90;;;;;;5026626;28;20358;-56
2022/12/15 13:32:54;;;;;;;;;;;1.50;99.90;;;;;;5035305;27;20376;-58
2022/12/15 13:35:30;;;;;;;63.55;40.25;;;1.50;99.90;;;;;;5039468;28;20379;-58
2022/12/15 13:38:06;;;;;;;60.80;38.05;;;1.60;99.90;;;;;;5021186;28;20038;-58
2022/12/15 13:40:35;;;;;;;60.97;40.03;;;1.50;99.90;;;;;;5026313;28;20025;-53
2022/12/15 13:43:03;;;;;;;61.80;38.95;;;1.50;99.90;;;;;;5022784;28;20036;-57
2022/12/15 13:45:50;;;;;;;65.32;39.58;;;1.50;99.90;;;;;;5028809;28;20562;-53
2022/12/15 13:48:22;;;;;;;69.13;41.50;;;1.50;99.90;;;;;;5028662;28;20029;-57
2022/12/15 13:51:04;;;;;;;75.17;42.30;;;1.40;99.90;;;;;;5029248;28;20062;-53
2022/12/15 13:53:45;;;;;;;72.72;42.70;;;1.40;99.90;;;;;;5029830;28;20248;-55
2022/12/15 13:56:10;;;;;;;73.57;42.53;;;1.30;99.90;;;;;;5048898;28;20059;-54
2022/12/15 13:58:52;;;;;;;77.60;42.83;;;1.30;99.90;;;;;;5049218;28;20598;-58
2022/12/15 14:01:22;;;;;;;73.88;41.50;;;1.30;99.90;;;;;;5047395;28;20029;-56
2022/12/15 14:04:06;;;;;;;77.05;44.10;;;1.30;99.90;;;;;;5048950;28;20017;-54
2022/12/15 14:06:47;;;;;;;81.47;46.70;;;1.40;99.90;;;;;;5048795;28;20081;-56
2022/12/15 14:09:18;;;;;;;82.68;46.60;;;1.40;99.90;;;;;;5047459;28;20345;-53
2022/12/15 14:11:45;;;;;;;91.50;49.28;;;1.30;99.90;;;;;;5048303;28;20407;-56
2022/12/15 14:14:36;;;;;;;93.63;47.42;;;1.30;99.90;;;;;;5048536;28;20498;-57
2022/12/15 14:17:07;;;;;;;86.45;47.58;;;1.30;99.90;;;;;;5047316;28;20480;-53
2022/12/15 14:19:38;;;;;;;198.60;81.90;;;1.30;99.90;;;;;;5048589;28;20018;-55
2022/12/15 14:22:24;;;;;;;100.47;52.13;;;1.20;99.90;;;;;;5048379;28;20028;-52
2022/12/15 14:24:51;;;;;;;106.47;55.15;;;1.10;99.90;;;;;;5048610;28;20077;-53
2022/12/15 14:27:22;;;;;;;101.25;55.97;;;1.10;99.90;;;;;;5048288;28;20041;-56
2022/12/15 14:29:48;;;;;;;101.85;50.88;;;1.10;99.90;;;;;;5048104;28;20021;-54
2022/12/15 14:32:14;;;;;;;92.80;48.88;;;1.10;99.90;;;;;;5048283;28;20421;-57
2022/12/15 14:34:42;;;;;;;108.78;55.63;;;1.10;99.90;;;;;;5047232;28;20279;-56
2022/12/15 14:37:17;;;;;;;105.45;55.47;;;1.00;99.90;;;;;;5047330;28;20025;-58
2022/12/15 14:39:46;;;;;;;110.03;55.13;;;1.10;99.90;;;;;;5048408;28;20109;-57
2022/12/15 14:42:22;;;;;;;100.28;50.88;;;1.10;99.90;;;;;;5048072;28;20441;-56
2022/12/15 14:44:48;;;;;;;131.55;64.47;;;1.10;99.90;;;;;;5048221;28;20036;-57
2022/12/15 14:47:20;;;;;;;109.28;58.95;;;1.00;99.90;;;;;;5047521;28;20025;-56
2022/12/15 14:49:47;;;;;;;122.90;60.13;;;0.90;99.90;;;;;;5048130;28;20017;-57
2022/12/15 14:52:35;;;;;;;105.65;51.50;;;0.90;99.90;;;;;;5047965;28;20028;-56
2022/12/15 14:55:23;;;;;;;101.30;52.63;;;0.90;99.90;;;;;;5046653;28;20052;-53
2022/12/15 14:57:51;;;;;;;104.40;52.75;;;0.90;99.90;;;;;;5051136;28;20029;-58
2022/12/15 15:00:35;;;;;;;105.10;53.47;;;0.80;99.90;;;;;;5047853;28;20112;-56
2022/12/15 15:03:21;;;;;;;111.90;52.45;;;0.80;99.90;;;;;;5047417;28;20065;-56
2022/12/15 15:06:13;;;;;;;104.40;52.08;;;0.70;99.90;;;;;;5047824;28;20077;-58
2022/12/15 15:09:23;;;;;;;103.85;50.20;;;0.70;99.90;;;;;;5048510;27;20468;-52
2022/12/15 15:12:05;;;;;;;111.28;56.00;;;0.70;99.90;;;;;;5047713;28;20037;-52
2022/12/15 15:14:44;;;;;;;107.47;49.42;;;0.60;99.90;;;;;;5047553;28;20028;-56
2022/12/15 15:17:29;;;;;;;103.43;49.38;;;0.70;99.90;;;;;;5046035;28;20071;-57
2022/12/15 15:20:04;;;;;;;103.22;48.85;;;0.70;99.90;;;;;;5026797;28;20241;-53
2022/12/15 15:22:39;;;;;;;106.90;48.83;;;0.70;99.90;;;;;;5018243;28;20379;-53
2022/12/15 15:25:25;;;;;;;106.50;51.28;;;0.70;99.90;;;;;;5016726;28;20078;-54
2022/12/15 15:27:51;;;;;;;113.20;52.03;;;0.70;99.90;;;;;;5035002;27;22003;-57